KISP/ISP METAR and TAF weather

Enter ICAO airport designator
Station Type Date Time Source
KISP METAR 2020/07/06 08:56 UTC NOAA

KISP 060856Z AUTO 00000KT 9SM SCT090 22/22 A2996 RMK AO2 SLP145 T02220222 53003


Station Type Date Time Source
KISP Decoded METAR 2020/07/06 08:56 UTC NOAA

ISLIP LONG ISLAND MAC ART, NY, United States (KISP) 40-48N 073-06W 43M
Jul 06, 2020 - 04:56 AM EDT / 2020.07.06 0856 UTC
Wind: Calm:0
Visibility: 9 mile(s):0
Sky conditions: partly cloudy
Temperature: 72.0 F (22.2 C)
Dew Point: 72.0 F (22.2 C)
Relative Humidity: 100%
Pressure (altimeter): 29.96 in. Hg (1014 hPa)
Pressure tendency: 0.01 inches (0.3 hPa) higher than three hours ago
ob: KISP 060856Z AUTO 00000KT 9SM SCT090 22/22 A2996 RMK AO2 SLP145 T02220222 53003
cycle: 9

Station Type Date Time Source
KISP TAF 2020/07/06 09:42 UTC NOAA

TAF
AMD KISP 060840Z 0609/0706 29005KT P6SM SCT250
FM061200 03007KT P6SM BKN250
FM061700 16010KT P6SM VCSH SCT070 BKN250
FM061900 17011KT P6SM -SHRA VCTS BKN040CB
TEMPO 0620/0623 5SM TSRA BKN030CB
FM070000 12005KT P6SM BKN050

Example: see airport list